Time;durP1;ratioP1;P1;durP2;ratioP2;P2;SDS_P1;SDS_P2;PMS_P1;PMS_P2;Temp;Humidity;BMP_temperature;BMP_pressure;BME280_temperature;BME280_humidity;BME280_pressure;Samples;Min_cycle;Max_cycle;Signal;HPM_P1;HPM_P2
2023/06/26 00:01:51;;;;;;;8.77;7.70;;;;;;;;;;5072174;28;20216;-67
2023/06/26 00:04:17;;;;;;;8.90;7.83;;;;;;;;;;5073354;28;20202;-67
2023/06/26 00:06:42;;;;;;;10.47;7.67;;;;;;;;;;5072241;28;20185;-67
2023/06/26 00:09:08;;;;;;;10.23;8.60;;;;;;;;;;5072087;28;20181;-67
2023/06/26 00:11:34;;;;;;;9.20;7.90;;;;;;;;;;5072091;28;20666;-67
2023/06/26 00:14:01;;;;;;;10.50;8.33;;;;;;;;;;5071779;28;20201;-67
2023/06/26 00:16:27;;;;;;;15.00;8.13;;;;;;;;;;5072834;28;20188;-67
2023/06/26 00:18:53;;;;;;;11.97;8.20;;;;;;;;;;5071959;28;20584;-67
2023/06/26 00:21:20;;;;;;;9.60;8.60;;;;;;;;;;5072162;28;20173;-67
2023/06/26 00:23:46;;;;;;;12.47;9.10;;;;;;;;;;5073297;28;20205;-67
2023/06/26 00:26:12;;;;;;;10.87;9.17;;;;;;;;;;5071829;28;20227;-67
2023/06/26 00:28:38;;;;;;;9.70;8.70;;;;;;;;;;5072267;28;20208;-66
2023/06/26 00:31:04;;;;;;;12.67;8.77;;;;;;;;;;5071930;28;20643;-67
2023/06/26 00:33:30;;;;;;;13.13;9.07;;;;;;;;;;5073233;28;20223;-67
2023/06/26 00:35:56;;;;;;;9.97;8.63;;;;;;;;;;5073563;28;20600;-67
2023/06/26 00:38:22;;;;;;;9.57;8.67;;;;;;;;;;5072887;28;20201;-67
2023/06/26 00:40:48;;;;;;;12.23;8.83;;;;;;;;;;5073142;28;20250;-68
2023/06/26 00:43:14;;;;;;;10.97;8.57;;;;;;;;;;5071595;28;20210;-67
2023/06/26 00:45:40;;;;;;;10.90;9.10;;;;;;;;;;5073005;28;20578;-67
2023/06/26 00:48:06;;;;;;;9.70;8.70;;;;;;;;;;5073256;28;20182;-67
2023/06/26 00:50:32;;;;;;;9.97;8.90;;;;;;;;;;5071669;28;20194;-67
2023/06/26 00:53:00;;;;;;;11.53;9.00;;;;;;;;;;5073022;28;20700;-67
2023/06/26 00:55:26;;;;;;;9.67;8.67;;;;;;;;;;5071737;28;20679;-67
2023/06/26 00:57:53;;;;;;;10.03;9.03;;;;;;;;;;5072962;28;20185;-67
2023/06/26 01:00:19;;;;;;;9.77;8.77;;;;;;;;;;5072859;28;20170;-68
2023/06/26 01:02:46;;;;;;;12.43;9.40;;;;;;;;;;5072959;28;20174;-67
2023/06/26 01:05:12;;;;;;;10.30;9.27;;;;;;;;;;5073031;28;20575;-67
2023/06/26 01:07:39;;;;;;;10.87;9.63;;;;;;;;;;5072685;28;20178;-67
2023/06/26 01:10:05;;;;;;;11.87;9.73;;;;;;;;;;5072893;28;20201;-67
2023/06/26 01:12:32;;;;;;;12.23;9.80;;;;;;;;;;5072708;28;20223;-67
2023/06/26 01:14:59;;;;;;;12.73;9.50;;;;;;;;;;5071418;28;20198;-67
2023/06/26 01:17:25;;;;;;;11.80;10.03;;;;;;;;;;5073085;28;20174;-67
2023/06/26 01:19:52;;;;;;;11.20;9.70;;;;;;;;;;5071398;28;20603;-68
2023/06/26 01:22:29;;;;;;;14.83;9.80;;;;;;;;;;5072792;28;20257;-67
2023/06/26 01:25:11;;;;;;;10.53;9.37;;;;;;;;;;5071332;28;20220;-66
2023/06/26 01:27:38;;;;;;;11.80;9.93;;;;;;;;;;5076703;28;20166;-67
2023/06/26 01:30:05;;;;;;;11.30;9.43;;;;;;;;;;5075055;28;20182;-67
2023/06/26 01:32:31;;;;;;;12.57;9.43;;;;;;;;;;5076658;28;20185;-67
2023/06/26 01:34:58;;;;;;;11.87;9.90;;;;;;;;;;5074695;28;20292;-68
2023/06/26 01:37:24;;;;;;;14.50;9.70;;;;;;;;;;5074784;28;20563;-67
2023/06/26 01:39:50;;;;;;;14.00;9.60;;;;;;;;;;5076507;28;20201;-68
2023/06/26 01:42:16;;;;;;;11.57;9.73;;;;;;;;;;5075984;28;20559;-68
2023/06/26 01:44:46;;;;;;;10.50;9.40;;;;;;;;;;5076046;28;20699;-67
2023/06/26 01:47:17;;;;;;;12.67;9.83;;;;;;;;;;5076195;28;20165;-67
2023/06/26 01:49:52;;;;;;;11.90;9.57;;;;;;;;;;5076041;28;20190;-68
2023/06/26 01:52:23;;;;;;;12.93;9.63;;;;;;;;;;5074594;28;20276;-67
2023/06/26 01:54:55;;;;;;;10.13;9.13;;;;;;;;;;5075919;28;20205;-67
2023/06/26 01:57:22;;;;;;;10.77;9.63;;;;;;;;;;5076023;28;20515;-67
2023/06/26 01:59:48;;;;;;;10.73;9.70;;;;;;;;;;5075785;28;20197;-68
2023/06/26 02:02:14;;;;;;;12.07;9.60;;;;;;;;;;5075948;28;20201;-67
2023/06/26 02:04:41;;;;;;;12.70;9.97;;;;;;;;;;5075696;28;20233;-68
2023/06/26 02:07:09;;;;;;;13.17;9.90;;;;;;;;;;5075735;28;20178;-67
2023/06/26 02:09:35;;;;;;;10.87;9.73;;;;;;;;;;5075515;28;20201;-68
2023/06/26 02:12:01;;;;;;;12.07;10.83;;;;;;;;;;5076118;28;20255;-67
2023/06/26 02:14:27;;;;;;;13.80;9.80;;;;;;;;;;5075525;28;20201;-67
2023/06/26 02:16:53;;;;;;;20.63;9.83;;;;;;;;;;5075684;28;20386;-68
2023/06/26 02:19:21;;;;;;;11.23;9.37;;;;;;;;;;5074305;28;20205;-67
2023/06/26 02:21:48;;;;;;;12.93;9.13;;;;;;;;;;5074004;28;20659;-67
2023/06/26 02:24:14;;;;;;;26.63;9.30;;;;;;;;;;5089852;22;20308;-66
2023/06/26 02:26:40;;;;;;;26.63;9.70;;;;;;;;;;5075109;28;20674;-67
2023/06/26 02:29:06;;;;;;;10.07;9.07;;;;;;;;;;5075296;28;20188;-67
2023/06/26 02:31:32;;;;;;;11.40;8.80;;;;;;;;;;5077724;28;20535;-66
2023/06/26 02:33:58;;;;;;;10.27;8.60;;;;;;;;;;5080300;28;20198;-66
2023/06/26 02:36:24;;;;;;;9.77;8.77;;;;;;;;;;5076362;28;20643;-67
2023/06/26 02:38:50;;;;;;;10.83;8.97;;;;;;;;;;5073260;28;20682;-67
2023/06/26 02:41:15;;;;;;;11.73;9.10;;;;;;;;;;5075606;28;20685;-67
2023/06/26 02:43:41;;;;;;;10.07;8.97;;;;;;;;;;5074840;28;20557;-66
2023/06/26 02:46:07;;;;;;;10.57;8.73;;;;;;;;;;5073578;28;20268;-67
2023/06/26 02:48:33;;;;;;;11.67;9.27;;;;;;;;;;5073598;28;20267;-67
2023/06/26 02:50:59;;;;;;;10.90;9.03;;;;;;;;;;5074862;28;20178;-67
2023/06/26 02:53:25;;;;;;;12.20;8.67;;;;;;;;;;5075223;28;20265;-67
2023/06/26 02:55:51;;;;;;;12.07;9.07;;;;;;;;;;5073683;28;20197;-67
2023/06/26 02:58:17;;;;;;;14.20;9.47;;;;;;;;;;5074327;28;20300;-67
2023/06/26 03:00:43;;;;;;;10.20;8.90;;;;;;;;;;5074128;28;20181;-67
2023/06/26 03:03:10;;;;;;;10.33;9.13;;;;;;;;;;5074411;28;20605;-67
2023/06/26 03:05:36;;;;;;;11.27;8.87;;;;;;;;;;5073192;28;20201;-67
2023/06/26 03:08:03;;;;;;;10.40;8.43;;;;;;;;;;5073001;28;20185;-67
2023/06/26 03:10:29;;;;;;;13.43;9.20;;;;;;;;;;5074760;28;20252;-67
2023/06/26 03:12:55;;;;;;;11.97;8.87;;;;;;;;;;5073287;28;20220;-67
2023/06/26 03:15:21;;;;;;;11.27;8.60;;;;;;;;;;5074290;28;20220;-67
2023/06/26 03:17:47;;;;;;;12.27;8.93;;;;;;;;;;5074207;28;20272;-67
2023/06/26 03:20:12;;;;;;;10.07;8.33;;;;;;;;;;5074579;28;20204;-67
2023/06/26 03:22:38;;;;;;;12.30;8.37;;;;;;;;;;5074417;28;20254;-67
2023/06/26 03:25:04;;;;;;;9.50;8.60;;;;;;;;;;5073293;28;20214;-67
2023/06/26 03:27:30;;;;;;;9.80;8.80;;;;;;;;;;5073466;28;20556;-67
2023/06/26 03:29:56;;;;;;;9.30;8.47;;;;;;;;;;5074451;28;20636;-67
2023/06/26 03:32:22;;;;;;;13.17;8.87;;;;;;;;;;5074026;28;20177;-67
2023/06/26 03:34:48;;;;;;;11.03;8.47;;;;;;;;;;5073922;28;20629;-67
2023/06/26 03:37:14;;;;;;;13.63;8.33;;;;;;;;;;5073825;28;20606;-67
2023/06/26 03:39:40;;;;;;;11.20;8.60;;;;;;;;;;5073823;28;20673;-67
2023/06/26 03:42:06;;;;;;;9.97;8.47;;;;;;;;;;5072571;28;20174;-67
2023/06/26 03:44:32;;;;;;;9.20;8.37;;;;;;;;;;5073637;28;20197;-67
2023/06/26 03:46:58;;;;;;;9.93;8.80;;;;;;;;;;5073940;28;20181;-67
2023/06/26 03:49:24;;;;;;;9.63;8.57;;;;;;;;;;5073143;28;20178;-67
2023/06/26 03:51:50;;;;;;;9.20;8.20;;;;;;;;;;5073507;28;20180;-67
2023/06/26 03:54:16;;;;;;;9.10;8.17;;;;;;;;;;5073565;28;20197;-67
2023/06/26 03:56:42;;;;;;;10.67;8.07;;;;;;;;;;5073491;28;20662;-67
2023/06/26 03:59:08;;;;;;;13.27;8.33;;;;;;;;;;5072109;28;20202;-67
2023/06/26 04:01:36;;;;;;;8.67;7.33;;;;;;;;;;5073583;28;20176;-67
2023/06/26 04:04:02;;;;;;;9.00;7.37;;;;;;;;;;5073473;28;20197;-67
2023/06/26 04:06:28;;;;;;;10.27;7.20;;;;;;;;;;5073550;28;20176;-67
2023/06/26 04:08:54;;;;;;;8.77;7.10;;;;;;;;;;5072007;28;20185;-67
2023/06/26 04:11:20;;;;;;;9.67;7.30;;;;;;;;;;5073296;28;20235;-67
2023/06/26 04:13:46;;;;;;;7.60;6.80;;;;;;;;;;5073269;28;20667;-67
2023/06/26 04:16:13;;;;;;;7.70;6.90;;;;;;;;;;5073539;28;20209;-67
2023/06/26 04:18:39;;;;;;;8.63;6.67;;;;;;;;;;5073510;28;20237;-67
2023/06/26 04:21:07;;;;;;;7.90;6.67;;;;;;;;;;5073601;28;20181;-68
2023/06/26 04:23:33;;;;;;;8.93;6.53;;;;;;;;;;5073120;28;20205;-67
2023/06/26 04:25:59;;;;;;;9.53;6.40;;;;;;;;;;5072941;28;20252;-67
2023/06/26 04:28:25;;;;;;;7.77;6.60;;;;;;;;;;5073319;28;20221;-67
2023/06/26 04:30:51;;;;;;;14.47;6.33;;;;;;;;;;5073217;28;20189;-67
2023/06/26 04:33:17;;;;;;;7.63;6.03;;;;;;;;;;5073337;28;20186;-67
2023/06/26 04:35:44;;;;;;;9.30;6.17;;;;;;;;;;5073155;28;20258;-67
2023/06/26 04:38:11;;;;;;;8.87;6.67;;;;;;;;;;5073223;28;20217;-67
2023/06/26 04:40:37;;;;;;;6.97;6.27;;;;;;;;;;5071846;28;20696;-67
2023/06/26 04:43:03;;;;;;;11.97;6.40;;;;;;;;;;5073355;28;20632;-67
2023/06/26 04:45:29;;;;;;;8.60;6.17;;;;;;;;;;5073552;28;20599;-67
2023/06/26 04:47:56;;;;;;;7.83;6.37;;;;;;;;;;5073135;28;20176;-67
2023/06/26 04:50:22;;;;;;;7.50;6.40;;;;;;;;;;5073590;28;20174;-67
2023/06/26 04:52:48;;;;;;;7.93;6.80;;;;;;;;;;5072995;28;20185;-67
2023/06/26 04:55:14;;;;;;;11.07;7.07;;;;;;;;;;5073324;28;20280;-68
2023/06/26 04:57:40;;;;;;;9.43;7.27;;;;;;;;;;5073348;28;20209;-67
2023/06/26 05:00:09;;;;;;;8.00;7.10;;;;;;;;;;5073688;28;20675;-67
2023/06/26 05:02:35;;;;;;;8.33;7.10;;;;;;;;;;5075772;28;20603;-67
2023/06/26 05:05:01;;;;;;;9.00;7.07;;;;;;;;;;5076390;28;20202;-67
2023/06/26 05:07:27;;;;;;;8.37;7.40;;;;;;;;;;5078477;28;20178;-67
2023/06/26 05:09:53;;;;;;;8.13;6.87;;;;;;;;;;5078392;28;20223;-67
2023/06/26 05:12:19;;;;;;;8.07;7.23;;;;;;;;;;5077418;28;20185;-68
2023/06/26 05:14:46;;;;;;;8.40;6.83;;;;;;;;;;5077111;28;20683;-67
2023/06/26 05:17:12;;;;;;;8.90;7.17;;;;;;;;;;5076872;28;20541;-67
2023/06/26 05:19:38;;;;;;;10.70;6.80;;;;;;;;;;5076427;28;20209;-67
2023/06/26 05:22:06;;;;;;;8.37;7.07;;;;;;;;;;5077360;28;20659;-67
2023/06/26 05:24:33;;;;;;;8.17;6.97;;;;;;;;;;5082257;28;20220;-67
2023/06/26 05:26:59;;;;;;;12.83;6.97;;;;;;;;;;5081701;28;20186;-67
2023/06/26 05:29:25;;;;;;;10.93;7.23;;;;;;;;;;5078654;28;20269;-67
2023/06/26 05:31:52;;;;;;;10.87;6.13;;;;;;;;;;5076988;28;20199;-67
2023/06/26 05:34:20;;;;;;;10.90;6.47;;;;;;;;;;5076242;28;20198;-67
2023/06/26 05:36:49;;;;;;;10.40;6.03;;;;;;;;;;5076139;28;20185;-68
2023/06/26 05:39:15;;;;;;;11.37;6.93;;;;;;;;;;5076042;28;20288;-67
2023/06/26 05:41:41;;;;;;;9.93;6.20;;;;;;;;;;5076148;28;20173;-67
2023/06/26 05:44:07;;;;;;;10.30;6.27;;;;;;;;;;5076061;28;20190;-67
2023/06/26 05:46:33;;;;;;;9.73;6.33;;;;;;;;;;5076364;28;20180;-67
2023/06/26 05:48:59;;;;;;;10.50;6.97;;;;;;;;;;5075405;28;20177;-67
2023/06/26 05:51:25;;;;;;;10.03;6.33;;;;;;;;;;5076657;28;20190;-67
2023/06/26 05:53:51;;;;;;;11.33;6.40;;;;;;;;;;5076731;28;20189;-67
2023/06/26 05:56:18;;;;;;;15.43;7.13;;;;;;;;;;5075971;28;20248;-67
2023/06/26 05:58:44;;;;;;;9.10;6.40;;;;;;;;;;5076166;28;20331;-67
2023/06/26 06:01:10;;;;;;;12.03;7.00;;;;;;;;;;5075928;28;20199;-67
2023/06/26 06:03:36;;;;;;;10.00;6.20;;;;;;;;;;5075888;28;20170;-67
2023/06/26 06:06:02;;;;;;;12.53;6.70;;;;;;;;;;5076081;28;20197;-67
2023/06/26 06:08:28;;;;;;;13.47;6.30;;;;;;;;;;5075807;28;20193;-67
2023/06/26 06:10:54;;;;;;;9.97;6.23;;;;;;;;;;5075557;28;20226;-67
2023/06/26 06:13:20;;;;;;;12.57;6.80;;;;;;;;;;5076083;28;20181;-67
2023/06/26 06:15:46;;;;;;;11.00;6.30;;;;;;;;;;5075521;28;20200;-67
2023/06/26 06:18:11;;;;;;;14.70;7.40;;;;;;;;;;5075457;28;20197;-67
2023/06/26 06:20:37;;;;;;;12.93;6.10;;;;;;;;;;5075497;28;20186;-67
2023/06/26 06:23:03;;;;;;;15.30;7.50;;;;;;;;;;5075586;28;20620;-67
2023/06/26 06:25:29;;;;;;;14.20;6.67;;;;;;;;;;5074965;28;20210;-67
2023/06/26 06:27:55;;;;;;;12.53;6.97;;;;;;;;;;5075133;28;20253;-67
2023/06/26 06:30:21;;;;;;;15.10;6.93;;;;;;;;;;5075142;28;20174;-67
2023/06/26 06:32:51;;;;;;;13.10;7.27;;;;;;;;;;5075282;28;20178;-67
2023/06/26 06:35:20;;;;;;;14.80;7.10;;;;;;;;;;5075053;28;20222;-67
2023/06/26 06:37:46;;;;;;;17.47;6.47;;;;;;;;;;5075630;28;20280;-67
2023/06/26 06:40:13;;;;;;;15.47;6.77;;;;;;;;;;5074841;28;20205;-67
2023/06/26 06:42:39;;;;;;;14.90;6.43;;;;;;;;;;5075542;28;20561;-67
2023/06/26 06:45:05;;;;;;;19.00;6.73;;;;;;;;;;5075076;28;20339;-67
2023/06/26 06:47:32;;;;;;;10.67;5.90;;;;;;;;;;5075179;28;20181;-67
2023/06/26 06:49:58;;;;;;;14.10;6.73;;;;;;;;;;5074817;28;20189;-67
2023/06/26 06:52:24;;;;;;;13.97;6.93;;;;;;;;;;5074893;28;20186;-67
2023/06/26 06:54:54;;;;;;;14.23;7.07;;;;;;;;;;5075257;28;20200;-67
2023/06/26 06:57:20;;;;;;;15.83;7.07;;;;;;;;;;5074852;28;20185;-66
2023/06/26 06:59:47;;;;;;;11.03;7.13;;;;;;;;;;5074957;28;20202;-67
2023/06/26 07:02:13;;;;;;;13.43;7.10;;;;;;;;;;5074959;28;20189;-67
2023/06/26 07:04:39;;;;;;;13.13;7.20;;;;;;;;;;5074365;28;20322;-67
2023/06/26 07:07:05;;;;;;;18.10;8.33;;;;;;;;;;5074543;28;20196;-67
2023/06/26 07:09:31;;;;;;;19.77;7.70;;;;;;;;;;5074419;28;20186;-67
2023/06/26 07:11:57;;;;;;;17.77;7.17;;;;;;;;;;5073114;28;20178;-67
2023/06/26 07:14:23;;;;;;;15.87;7.83;;;;;;;;;;5074493;28;20599;-67
2023/06/26 07:16:49;;;;;;;14.67;7.30;;;;;;;;;;5075383;28;20528;-67
2023/06/26 07:19:15;;;;;;;11.70;7.00;;;;;;;;;;5075176;28;20212;-67
2023/06/26 07:21:42;;;;;;;16.97;7.40;;;;;;;;;;5074078;28;20174;-67
2023/06/26 07:24:08;;;;;;;12.43;7.77;;;;;;;;;;5073589;28;20244;-68
2023/06/26 07:26:34;;;;;;;14.33;7.90;;;;;;;;;;5074313;28;20166;-67
2023/06/26 07:29:00;;;;;;;15.60;8.40;;;;;;;;;;5073779;28;20182;-67
2023/06/26 07:31:26;;;;;;;14.90;7.80;;;;;;;;;;5074250;28;20182;-67
2023/06/26 07:33:52;;;;;;;15.60;7.87;;;;;;;;;;5072651;28;20186;-67
2023/06/26 07:36:18;;;;;;;13.63;7.90;;;;;;;;;;5073815;28;20754;-67
2023/06/26 07:38:44;;;;;;;14.43;8.57;;;;;;;;;;5073863;28;20702;-67
2023/06/26 07:41:10;;;;;;;17.30;8.77;;;;;;;;;;5072790;28;20239;-68
2023/06/26 07:43:36;;;;;;;12.73;7.33;;;;;;;;;;5072430;28;20201;-68
2023/06/26 07:46:02;;;;;;;14.30;7.60;;;;;;;;;;5073568;28;20193;-68
2023/06/26 07:48:28;;;;;;;11.57;6.87;;;;;;;;;;5072303;28;20182;-67
2023/06/26 07:50:54;;;;;;;15.77;6.60;;;;;;;;;;5072288;28;20238;-67
2023/06/26 07:53:20;;;;;;;16.77;6.97;;;;;;;;;;5073844;28;20184;-67
2023/06/26 07:55:46;;;;;;;14.93;7.23;;;;;;;;;;5073437;28;20194;-67
2023/06/26 07:58:12;;;;;;;17.63;7.43;;;;;;;;;;5073515;28;20189;-67
2023/06/26 08:00:38;;;;;;;15.13;7.17;;;;;;;;;;5073677;28;20180;-68
2023/06/26 08:03:04;;;;;;;11.37;6.13;;;;;;;;;;5074647;28;20227;-67
2023/06/26 08:05:30;;;;;;;17.17;7.20;;;;;;;;;;5074383;28;20277;-68
2023/06/26 08:07:56;;;;;;;13.07;6.60;;;;;;;;;;5074649;28;20481;-68
2023/06/26 08:10:22;;;;;;;16.27;6.57;;;;;;;;;;5073526;28;20650;-67
2023/06/26 08:12:50;;;;;;;16.03;6.67;;;;;;;;;;5075083;28;20199;-67
2023/06/26 08:15:16;;;;;;;11.00;6.17;;;;;;;;;;5074541;28;20190;-68
2023/06/26 08:17:42;;;;;;;14.77;6.00;;;;;;;;;;5074780;28;20178;-66
2023/06/26 08:20:08;;;;;;;17.37;6.87;;;;;;;;;;5074958;28;20344;-66
2023/06/26 08:22:34;;;;;;;13.03;5.90;;;;;;;;;;5075431;28;20177;-68
2023/06/26 08:25:00;;;;;;;14.23;6.43;;;;;;;;;;5075078;28;20286;-67
2023/06/26 08:27:26;;;;;;;13.47;5.80;;;;;;;;;;5074437;28;20640;-66
2023/06/26 08:29:52;;;;;;;13.57;5.70;;;;;;;;;;5073307;28;20563;-67
2023/06/26 08:32:18;;;;;;;12.53;5.57;;;;;;;;;;5074620;28;20227;-67
2023/06/26 08:34:44;;;;;;;8.60;5.23;;;;;;;;;;5076362;28;20193;-68
2023/06/26 08:37:10;;;;;;;11.27;5.33;;;;;;;;;;5078875;28;20178;-68
2023/06/26 08:39:36;;;;;;;17.37;6.37;;;;;;;;;;5078933;28;20237;-67
2023/06/26 08:42:02;;;;;;;15.03;6.20;;;;;;;;;;5079523;28;20231;-67
2023/06/26 08:44:28;;;;;;;12.43;5.93;;;;;;;;;;5078925;28;20204;-67
2023/06/26 08:46:54;;;;;;;14.43;6.07;;;;;;;;;;5078758;28;20174;-67
2023/06/26 08:49:30;;;;;;;11.20;5.53;;;;;;;;;;5078511;28;20189;-67
2023/06/26 08:51:57;;;;;;;13.93;6.10;;;;;;;;;;5092121;22;20241;-69
2023/06/26 08:54:28;;;;;;;13.30;5.57;;;;;;;;;;5076520;28;20231;-68
2023/06/26 08:56:55;;;;;;;14.10;5.73;;;;;;;;;;5076524;28;20174;-68
2023/06/26 08:59:21;;;;;;;14.90;5.50;;;;;;;;;;5077440;28;20208;-68
2023/06/26 09:01:47;;;;;;;9.83;5.17;;;;;;;;;;5077536;28;20197;-70
2023/06/26 09:04:14;;;;;;;14.03;6.07;;;;;;;;;;5075791;28;20178;-68
2023/06/26 09:06:40;;;;;;;10.60;5.80;;;;;;;;;;5076752;28;20552;-69
2023/06/26 09:09:07;;;;;;;12.63;5.83;;;;;;;;;;5077182;28;20174;-68
2023/06/26 09:11:33;;;;;;;12.90;6.07;;;;;;;;;;5077130;28;20698;-68
2023/06/26 09:13:59;;;;;;;12.70;5.13;;;;;;;;;;5076787;28;20182;-68
2023/06/26 09:16:26;;;;;;;12.40;5.40;;;;;;;;;;5075338;28;20661;-69
2023/06/26 09:18:52;;;;;;;13.80;5.10;;;;;;;;;;5075106;28;20245;-68
2023/06/26 09:21:18;;;;;;;9.70;5.47;;;;;;;;;;5075149;28;20571;-68
2023/06/26 09:23:44;;;;;;;6.73;4.60;;;;;;;;;;5076619;28;20526;-68
2023/06/26 09:26:11;;;;;;;10.87;5.63;;;;;;;;;;5076703;28;20269;-68
2023/06/26 09:28:38;;;;;;;7.97;4.67;;;;;;;;;;5075211;28;20259;-68
2023/06/26 09:31:05;;;;;;;15.43;5.83;;;;;;;;;;5076418;28;20201;-68
2023/06/26 09:33:36;;;;;;;7.43;4.67;;;;;;;;;;5075129;28;20186;-68
2023/06/26 09:36:02;;;;;;;7.17;4.90;;;;;;;;;;5074797;28;20227;-67
2023/06/26 09:38:28;;;;;;;10.57;4.90;;;;;;;;;;5074856;28;20208;-68
2023/06/26 09:40:54;;;;;;;9.13;4.57;;;;;;;;;;5075438;28;20197;-68
2023/06/26 09:43:20;;;;;;;8.70;4.90;;;;;;;;;;5074859;28;20178;-67
2023/06/26 09:45:46;;;;;;;9.10;4.73;;;;;;;;;;5075737;28;20174;-68
2023/06/26 09:48:14;;;;;;;8.47;5.27;;;;;;;;;;5075499;28;20178;-67
2023/06/26 09:50:42;;;;;;;8.43;4.60;;;;;;;;;;5074394;28;20710;-68
2023/06/26 09:53:15;;;;;;;11.83;4.67;;;;;;;;;;5076603;28;20575;-68
2023/06/26 09:55:43;;;;;;;7.93;4.27;;;;;;;;;;5074850;28;20544;-68
2023/06/26 09:58:14;;;;;;;5.97;4.40;;;;;;;;;;5075865;28;20196;-67
2023/06/26 10:00:40;;;;;;;7.40;4.50;;;;;;;;;;5075812;28;20196;-68
2023/06/26 10:03:06;;;;;;;11.10;4.30;;;;;;;;;;5075560;28;20173;-67
2023/06/26 10:05:32;;;;;;;13.43;4.50;;;;;;;;;;5075356;28;20192;-68
2023/06/26 10:07:59;;;;;;;6.03;3.80;;;;;;;;;;5075420;28;20272;-68
2023/06/26 10:10:25;;;;;;;5.43;3.77;;;;;;;;;;5074101;28;20178;-68
2023/06/26 10:12:55;;;;;;;9.67;4.17;;;;;;;;;;5075528;28;20174;-68
2023/06/26 10:15:21;;;;;;;9.87;3.97;;;;;;;;;;5075640;28;20227;-68
2023/06/26 10:17:49;;;;;;;8.10;4.33;;;;;;;;;;5075719;28;20180;-68
2023/06/26 10:20:15;;;;;;;11.17;4.30;;;;;;;;;;5075503;28;20205;-68
2023/06/26 10:22:45;;;;;;;8.13;3.80;;;;;;;;;;5075738;28;20186;-67
2023/06/26 10:25:11;;;;;;;9.70;4.50;;;;;;;;;;5075923;28;20230;-68
2023/06/26 10:27:41;;;;;;;7.10;3.97;;;;;;;;;;5075584;28;20253;-68
2023/06/26 10:30:12;;;;;;;10.33;4.17;;;;;;;;;;5075255;28;20651;-68
2023/06/26 10:32:38;;;;;;;10.50;3.70;;;;;;;;;;5075529;28;20206;-67
2023/06/26 10:35:06;;;;;;;6.13;4.20;;;;;;;;;;5074037;28;20217;-67
2023/06/26 10:37:45;;;;;;;11.00;4.53;;;;;;;;;;5074037;28;20662;-66
2023/06/26 10:40:12;;;;;;;9.57;4.30;;;;;;;;;;5073538;28;20679;-68
2023/06/26 10:42:39;;;;;;;5.07;4.00;;;;;;;;;;5074940;28;20170;-67
2023/06/26 10:45:14;;;;;;;6.80;3.90;;;;;;;;;;5075458;28;20536;-67
2023/06/26 10:47:41;;;;;;;5.50;3.20;;;;;;;;;;5073410;28;20177;-67
2023/06/26 10:50:26;;;;;;;4.60;2.63;;;;;;;;;;5074589;28;20189;-67
2023/06/26 10:53:09;;;;;;;4.23;2.80;;;;;;;;;;5073450;28;20188;-67
2023/06/26 10:55:35;;;;;;;4.77;2.97;;;;;;;;;;5074976;28;20178;-67
2023/06/26 10:58:04;;;;;;;5.53;2.93;;;;;;;;;;5073610;28;20184;-67
2023/06/26 11:00:30;;;;;;;4.27;2.47;;;;;;;;;;5074436;28;20697;-67
2023/06/26 11:02:56;;;;;;;4.43;2.93;;;;;;;;;;5075044;28;20178;-66
2023/06/26 11:05:33;;;;;;;3.63;2.80;;;;;;;;;;5073517;28;20269;-67
2023/06/26 11:08:06;;;;;;;3.13;2.30;;;;;;;;;;5073683;28;20275;-67
2023/06/26 11:10:52;;;;;;;3.27;2.50;;;;;;;;;;5074705;28;20221;-67
2023/06/26 11:13:19;;;;;;;6.57;2.50;;;;;;;;;;5074699;28;20169;-67
2023/06/26 11:15:45;;;;;;;4.10;2.40;;;;;;;;;;5074342;28;20170;-67
2023/06/26 11:18:11;;;;;;;4.40;2.50;;;;;;;;;;5074388;28;20665;-66
2023/06/26 11:20:37;;;;;;;5.93;2.70;;;;;;;;;;5072869;28;20197;-67
2023/06/26 11:23:07;;;;;;;6.53;2.37;;;;;;;;;;5072766;28;20546;-67
2023/06/26 11:25:37;;;;;;;8.20;2.70;;;;;;;;;;5072955;28;20178;-67
2023/06/26 11:28:04;;;;;;;10.50;2.67;;;;;;;;;;5074050;28;20585;-67
2023/06/26 11:30:30;;;;;;;4.40;2.40;;;;;;;;;;5073463;28;20557;-68
2023/06/26 11:33:06;;;;;;;9.33;2.00;;;;;;;;;;5074480;28;20224;-67
2023/06/26 11:35:32;;;;;;;12.13;2.53;;;;;;;;;;5073902;28;20530;-68
2023/06/26 11:38:04;;;;;;;3.43;1.90;;;;;;;;;;5073714;28;20184;-67
2023/06/26 11:40:31;;;;;;;5.80;2.07;;;;;;;;;;5073987;28;20201;-68
2023/06/26 11:43:01;;;;;;;7.10;2.37;;;;;;;;;;5073914;28;20581;-67
2023/06/26 11:45:31;;;;;;;8.87;2.37;;;;;;;;;;5073774;28;20176;-66
2023/06/26 11:47:57;;;;;;;5.90;2.27;;;;;;;;;;5074049;28;20174;-67
2023/06/26 11:50:23;;;;;;;6.60;2.23;;;;;;;;;;5073590;28;20219;-68
2023/06/26 11:52:56;;;;;;;4.00;1.73;;;;;;;;;;5073514;28;20667;-66
2023/06/26 11:55:22;;;;;;;2.83;1.90;;;;;;;;;;5072466;28;20188;-67
2023/06/26 11:57:50;;;;;;;4.33;2.20;;;;;;;;;;5073665;28;20177;-68
2023/06/26 12:00:16;;;;;;;5.57;2.17;;;;;;;;;;5073485;28;20208;-67
2023/06/26 12:02:43;;;;;;;2.67;1.90;;;;;;;;;;5073410;28;20170;-67
2023/06/26 12:05:09;;;;;;;3.23;1.80;;;;;;;;;;5073364;28;20291;-66
2023/06/26 12:07:36;;;;;;;4.27;1.70;;;;;;;;;;5073307;28;20243;-67
2023/06/26 12:10:02;;;;;;;3.53;1.73;;;;;;;;;;5071790;28;20181;-67
2023/06/26 12:12:29;;;;;;;2.20;1.70;;;;;;;;;;5071795;28;20240;-67
2023/06/26 12:14:55;;;;;;;6.23;2.00;;;;;;;;;;5073255;28;20181;-67
2023/06/26 12:17:23;;;;;;;3.80;1.80;;;;;;;;;;5071993;28;20181;-67
2023/06/26 12:19:49;;;;;;;4.23;1.87;;;;;;;;;;5073029;28;20201;-69
2023/06/26 12:22:16;;;;;;;6.63;1.73;;;;;;;;;;5073110;28;20698;-67
2023/06/26 12:24:43;;;;;;;6.60;1.70;;;;;;;;;;5073044;28;20277;-67
2023/06/26 12:27:10;;;;;;;9.73;1.97;;;;;;;;;;5072102;28;20181;-67
2023/06/26 12:29:36;;;;;;;3.63;1.90;;;;;;;;;;5073027;28;20169;-71
2023/06/26 12:32:02;;;;;;;5.03;2.00;;;;;;;;;;5073099;28;20209;-67
2023/06/26 12:34:38;;;;;;;11.17;2.13;;;;;;;;;;5073076;28;20225;-68
2023/06/26 12:37:14;;;;;;;5.47;1.90;;;;;;;;;;5073414;28;20653;-67
2023/06/26 12:39:53;;;;;;;4.53;2.30;;;;;;;;;;5073384;28;20284;-67
2023/06/26 12:42:20;;;;;;;8.13;2.07;;;;;;;;;;5072329;28;20194;-67
2023/06/26 12:44:46;;;;;;;4.27;2.03;;;;;;;;;;5073501;28;20174;-67
2023/06/26 12:47:13;;;;;;;5.10;2.00;;;;;;;;;;5071622;28;20230;-67
2023/06/26 12:49:43;;;;;;;3.10;1.77;;;;;;;;;;5072991;28;20174;-66
2023/06/26 12:52:10;;;;;;;6.23;1.83;;;;;;;;;;5071438;28;20259;-67
2023/06/26 12:54:37;;;;;;;2.73;1.73;;;;;;;;;;5071467;28;20277;-67
2023/06/26 12:57:03;;;;;;;3.80;1.70;;;;;;;;;;5071558;28;20182;-67
2023/06/26 12:59:30;;;;;;;6.77;2.20;;;;;;;;;;5072712;28;20201;-67
2023/06/26 13:01:56;;;;;;;3.30;1.77;;;;;;;;;;5072822;28;20259;-67
2023/06/26 13:04:22;;;;;;;11.13;1.87;;;;;;;;;;5072952;28;20173;-67
2023/06/26 13:06:48;;;;;;;4.13;1.87;;;;;;;;;;5072781;28;20181;-67
2023/06/26 13:09:14;;;;;;;3.00;2.10;;;;;;;;;;5072693;28;20182;-67
2023/06/26 13:11:40;;;;;;;2.77;2.03;;;;;;;;;;5072777;28;20205;-67
2023/06/26 13:14:06;;;;;;;4.73;2.00;;;;;;;;;;5071468;28;20185;-67
2023/06/26 13:16:32;;;;;;;7.70;2.30;;;;;;;;;;5072594;28;20178;-67
2023/06/26 13:19:00;;;;;;;3.03;1.80;;;;;;;;;;5071942;28;20204;-66
2023/06/26 13:21:26;;;;;;;3.93;1.90;;;;;;;;;;5073456;28;20212;-67
2023/06/26 13:23:52;;;;;;;4.17;1.93;;;;;;;;;;5075444;28;20184;-67
2023/06/26 13:26:19;;;;;;;6.83;2.30;;;;;;;;;;5076601;28;20170;-67
2023/06/26 13:28:45;;;;;;;2.23;1.90;;;;;;;;;;5076225;28;20181;-67
2023/06/26 13:31:11;;;;;;;3.67;1.87;;;;;;;;;;5074980;28;20247;-68
2023/06/26 13:33:37;;;;;;;5.10;2.00;;;;;;;;;;5076181;28;20184;-68
2023/06/26 13:36:04;;;;;;;7.53;2.27;;;;;;;;;;5076102;28;20260;-68
2023/06/26 13:38:31;;;;;;;3.57;2.00;;;;;;;;;;5074734;28;20214;-67
2023/06/26 13:40:57;;;;;;;5.43;2.27;;;;;;;;;;5076362;28;20193;-67
2023/06/26 13:43:23;;;;;;;4.10;2.20;;;;;;;;;;5076157;28;20170;-67
2023/06/26 13:45:50;;;;;;;5.53;2.00;;;;;;;;;;5076435;28;20243;-68
2023/06/26 13:48:16;;;;;;;4.72;2.20;;;;;;;;;;5076428;28;20205;-67
2023/06/26 13:50:41;;;;;;;;;;;;;;;;;;5075519;28;20067;-67
2023/06/26 13:53:07;;;;;;;;;;;;;;;;;;5078030;28;19900;-68
2023/06/26 13:55:33;;;;;;;;;;;;;;;;;;5077849;28;19914;-68
2023/06/26 13:57:59;;;;;;;;;;;;;;;;;;5077120;28;20255;-67
2023/06/26 14:00:25;;;;;;;;;;;;;;;;;;5076190;28;20041;-67
2023/06/26 14:02:51;;;;;;;;;;;;;;;;;;5076355;28;19912;-68
2023/06/26 14:05:18;;;;;;;;;;;;;;;;;;5076377;28;19907;-68
2023/06/26 14:07:44;;;;;;;;;;;;;;;;;;5076290;28;19904;-67
2023/06/26 14:10:10;;;;;;;;;;;;;;;;;;5076534;28;20319;-67
2023/06/26 14:12:35;;;;;;;;;;;;;;;;;;5074668;28;19904;-68
2023/06/26 14:15:03;;;;;;;2.65;1.90;;;;;;;;;;5074250;28;20270;-68
2023/06/26 14:17:29;;;;;;;4.28;1.85;;;;;;;;;;5075403;28;20177;-67
2023/06/26 14:19:55;;;;;;;3.10;1.70;;;;;;;;;;5075904;28;20201;-68
2023/06/26 14:22:21;;;;;;;7.50;1.70;;;;;;;;;;5075252;28;20202;-67
2023/06/26 14:24:47;;;;;;;3.58;1.77;;;;;;;;;;5075642;28;20692;-68
2023/06/26 14:27:13;;;;;;;3.33;1.70;;;;;;;;;;5073975;28;20184;-67
2023/06/26 14:29:39;;;;;;;5.38;2.38;;;;;;;;;;5075258;28;20182;-68
2023/06/26 14:32:05;;;;;;;7.03;2.13;;;;;;;;;;5075287;28;20247;-68
2023/06/26 14:34:31;;;;;;;4.47;2.03;;;;;;;;;;5073916;28;20260;-68
2023/06/26 14:36:57;;;;;;;5.93;1.60;;;;;;;;;;5073929;28;20598;-67